EmailTwitter


Observations de surface / Québec / LFRH

Régions: Québec | Canada | États-Unis | Europe | France | UK | Elsewhere
Station
Affichage
Infos & localisation pour LFRH | Aide pour décoder les METARs

Observations prises le 2017-05-26 à 01H30 UTC à LORIENT/LANN BIH, FR (LFRH)

Température: 18.0 Celsius

Point de rosée: 14.0 Celsius

Humidité relative: 77%

Vents: Est à 11 km/h ou 6 noeuds.

Pression au niveau moyen de la mer: 101.40 kilopascals.

Observation METAR:

LFRH 260130Z AUTO 08006KT CAVOK 18/14 Q1014 NOSIG=